createdAt,value
2023-04-09T00:01:12.955Z,102007.98
2023-04-09T00:03:43.324Z,102008.61
2023-04-09T00:06:14.297Z,102007.29
2023-04-09T00:08:44.639Z,102007.00
2023-04-09T00:11:15.629Z,102005.59
2023-04-09T00:13:46.290Z,102000.40
2023-04-09T00:16:16.865Z,101999.38
2023-04-09T00:18:47.567Z,101994.42
2023-04-09T00:21:18.179Z,101992.39
2023-04-09T00:23:49.248Z,101992.30
2023-04-09T00:26:19.995Z,101991.16
2023-04-09T00:28:51.061Z,101989.70
2023-04-09T00:31:21.672Z,101991.28
2023-04-09T00:33:52.298Z,101989.31
2023-04-09T00:36:24.692Z,101988.59
2023-04-09T00:38:57.211Z,101990.97
2023-04-09T00:41:28.125Z,101989.02
2023-04-09T00:43:59.828Z,101992.54
2023-04-09T00:46:30.765Z,101992.20
2023-04-09T00:49:01.885Z,101992.91
2023-04-09T00:51:33.156Z,101995.63
2023-04-09T00:54:03.949Z,101999.45
2023-04-09T00:56:35.406Z,102000.65
2023-04-09T00:59:06.213Z,101998.74
2023-04-09T01:01:36.943Z,101998.70
2023-04-09T01:04:07.798Z,101995.53
2023-04-09T01:06:43.970Z,101995.55
2023-04-09T01:09:22.531Z,101993.93
2023-04-09T01:12:07.409Z,101996.84
2023-04-09T01:14:45.790Z,101994.80
2023-04-09T01:17:23.378Z,101996.54
2023-04-09T01:20:01.427Z,101994.80
2023-04-09T01:22:33.707Z,101989.30
2023-04-09T01:25:26.566Z,101988.51
2023-04-09T01:28:07.854Z,101983.00
2023-04-09T01:30:38.965Z,101981.45
2023-04-09T01:33:10.220Z,101979.91
2023-04-09T01:35:42.706Z,101979.34
2023-04-09T01:38:14.725Z,101979.05
2023-04-09T01:40:45.768Z,101973.17
2023-04-09T01:43:16.647Z,101977.08
2023-04-09T01:45:48.209Z,101976.66
2023-04-09T01:48:20.604Z,101977.89
2023-04-09T01:50:52.073Z,101975.80
2023-04-09T01:53:22.522Z,101978.40
2023-04-09T01:55:52.910Z,101981.08
2023-04-09T01:58:23.343Z,101978.89
2023-04-09T02:00:58.282Z,101981.08
2023-04-09T02:03:34.979Z,101982.27
2023-04-09T02:06:11.314Z,101983.14
2023-04-09T02:08:45.278Z,101983.96
2023-04-09T02:11:17.438Z,101986.02
2023-04-09T02:13:50.580Z,101985.77
2023-04-09T02:16:21.863Z,101984.38
2023-04-09T02:18:56.373Z,101979.65
2023-04-09T02:21:27.057Z,101981.52
2023-04-09T02:23:57.507Z,101981.96
2023-04-09T02:26:28.309Z,101985.64
2023-04-09T02:28:58.906Z,101986.94
2023-04-09T02:31:29.382Z,101989.38
2023-04-09T02:33:59.745Z,101980.91
2023-04-09T02:36:31.109Z,101987.39
2023-04-09T02:39:01.394Z,101985.85
2023-04-09T02:41:32.348Z,101984.39
2023-04-09T02:44:02.756Z,101984.48
2023-04-09T02:46:33.524Z,101985.85
2023-04-09T02:49:04.004Z,101983.91
2023-04-09T02:51:35.238Z,101983.81
2023-04-09T02:54:05.732Z,101981.86
2023-04-09T02:56:36.087Z,101977.84
2023-04-09T02:59:06.420Z,101975.59
2023-04-09T03:01:36.853Z,101975.60
2023-04-09T03:04:08.001Z,101974.20
2023-04-09T03:06:39.288Z,101970.49
2023-04-09T03:09:09.690Z,101969.65
2023-04-09T03:11:40.192Z,101969.79
2023-04-09T03:14:11.111Z,101965.10
2023-04-09T03:16:42.169Z,101964.19
2023-04-09T03:19:13.061Z,101963.27
2023-04-09T03:21:44.047Z,101961.54
2023-04-09T03:24:14.373Z,101962.80
2023-04-09T03:26:44.687Z,101964.20
2023-04-09T03:29:15.015Z,101962.36
2023-04-09T03:31:46.050Z,101966.08
2023-04-09T03:34:16.424Z,101969.22
2023-04-09T03:36:47.855Z,101967.37
2023-04-09T03:39:18.433Z,101969.61
2023-04-09T03:41:48.911Z,101970.47
2023-04-09T03:44:19.772Z,101973.14
2023-04-09T03:46:50.394Z,101969.66
2023-04-09T03:49:21.394Z,101968.21
2023-04-09T03:51:52.440Z,101969.13
2023-04-09T03:54:23.085Z,101970.17
2023-04-09T03:56:53.661Z,101971.11
2023-04-09T03:59:24.026Z,101971.21
2023-04-09T04:01:55.111Z,101968.46
2023-04-09T04:04:25.599Z,101967.72
2023-04-09T04:06:56.476Z,101969.91
2023-04-09T04:09:26.955Z,101971.57
2023-04-09T04:11:58.926Z,101969.95
2023-04-09T04:14:29.681Z,101973.83
2023-04-09T04:17:00.027Z,101974.81
2023-04-09T04:19:30.531Z,101973.96
2023-04-09T04:22:00.978Z,101973.06
2023-04-09T04:24:31.769Z,101973.55
2023-04-09T04:27:02.447Z,101971.40
2023-04-09T04:29:32.846Z,101977.36
2023-04-09T04:32:03.310Z,101977.04
2023-04-09T04:34:34.057Z,101978.55
2023-04-09T04:37:05.212Z,101983.23
2023-04-09T04:39:35.665Z,101985.56
2023-04-09T04:42:06.288Z,101986.85
2023-04-09T04:44:37.231Z,101989.27
2023-04-09T04:47:07.860Z,101988.39
2023-04-09T04:49:38.873Z,101986.31
2023-04-09T04:52:09.680Z,101982.92
2023-04-09T04:54:40.476Z,101988.88
2023-04-09T04:57:10.907Z,101985.37
2023-04-09T04:59:41.623Z,101988.09
2023-04-09T05:02:12.067Z,101987.52
2023-04-09T05:04:42.481Z,101986.42
2023-04-09T05:07:12.876Z,101987.95
2023-04-09T05:09:44.440Z,101984.88
2023-04-09T05:12:15.125Z,101985.38
2023-04-09T05:14:46.160Z,101983.16
2023-04-09T05:17:16.615Z,101983.59
2023-04-09T05:19:51.274Z,101982.87
2023-04-09T05:22:21.980Z,101985.51
2023-04-09T05:24:52.480Z,101986.40
2023-04-09T05:27:25.745Z,101983.27
2023-04-09T05:29:57.684Z,101986.08
2023-04-09T05:32:29.802Z,101985.75
2023-04-09T05:35:00.344Z,101987.29
2023-04-09T05:37:30.676Z,101986.46
2023-04-09T05:40:01.093Z,101985.63
2023-04-09T05:42:31.771Z,101988.50
2023-04-09T05:45:02.497Z,101987.86
2023-04-09T05:47:33.208Z,101990.45
2023-04-09T05:50:04.359Z,101992.25
2023-04-09T05:52:35.269Z,101995.34
2023-04-09T05:55:06.557Z,101991.60
2023-04-09T05:57:37.204Z,101994.45
2023-04-09T06:00:09.887Z,101994.94
2023-04-09T06:02:40.959Z,101994.77
2023-04-09T06:05:12.067Z,101996.80
2023-04-09T06:07:43.095Z,101998.23
2023-04-09T06:10:13.650Z,101996.94
2023-04-09T06:12:44.402Z,101998.16
2023-04-09T06:15:15.678Z,101999.05
2023-04-09T06:17:46.431Z,102001.13
2023-04-09T06:20:17.314Z,102000.18
2023-04-09T06:22:47.925Z,102000.33
2023-04-09T06:25:18.977Z,102002.17
2023-04-09T06:27:49.344Z,102005.92
2023-04-09T06:30:20.237Z,102013.78
2023-04-09T06:32:55.110Z,102016.57
2023-04-09T06:35:26.725Z,102020.70
2023-04-09T06:37:57.312Z,102022.27
2023-04-09T06:40:28.287Z,102021.67
2023-04-09T06:42:58.638Z,102021.20
2023-04-09T06:45:29.456Z,102020.54
2023-04-09T06:48:00.046Z,102017.33
2023-04-09T06:50:31.033Z,102018.08
2023-04-09T06:53:01.409Z,102019.04
2023-04-09T06:55:32.168Z,102018.23
2023-04-09T06:58:03.330Z,102018.79
2023-04-09T07:00:34.036Z,102021.29
2023-04-09T07:03:05.653Z,102020.00
2023-04-09T07:05:37.179Z,102019.71
2023-04-09T07:08:08.306Z,102025.05
2023-04-09T07:10:39.233Z,102025.64
2023-04-09T07:13:09.853Z,102023.52
2023-04-09T07:15:42.448Z,102022.71
2023-04-09T07:18:13.153Z,102023.83
2023-04-09T07:20:43.852Z,102023.10
2023-04-09T07:23:14.459Z,102022.11
2023-04-09T07:25:44.809Z,102027.80
2023-04-09T07:28:15.335Z,102027.21
2023-04-09T07:30:46.260Z,102027.78
2023-04-09T07:33:16.883Z,102031.81
2023-04-09T07:35:47.597Z,102020.85
2023-04-09T07:38:17.961Z,102022.08
2023-04-09T07:40:48.826Z,102022.21
2023-04-09T07:43:20.779Z,102021.93
2023-04-09T07:45:52.982Z,102023.27
2023-04-09T07:48:23.760Z,102026.92
2023-04-09T07:50:54.359Z,102029.65
2023-04-09T07:53:24.978Z,102026.73
2023-04-09T07:55:55.545Z,102027.27
2023-04-09T07:58:26.269Z,102026.49
2023-04-09T08:00:57.011Z,102026.02
2023-04-09T08:03:27.994Z,102023.75
2023-04-09T08:05:58.865Z,102027.87
2023-04-09T08:08:29.303Z,102031.88
2023-04-09T08:11:00.362Z,102032.40
2023-04-09T08:13:30.720Z,102030.95
2023-04-09T08:16:03.730Z,102028.86
2023-04-09T08:18:34.459Z,102034.61
2023-04-09T08:21:08.572Z,102032.88
2023-04-09T08:23:39.445Z,102035.15
2023-04-09T08:26:09.796Z,102032.98
2023-04-09T08:28:40.406Z,102031.00
2023-04-09T08:31:11.487Z,102033.68
2023-04-09T08:33:42.883Z,102030.60
2023-04-09T08:36:13.263Z,102031.79
2023-04-09T08:38:45.067Z,102026.59
2023-04-09T08:41:23.030Z,102029.58
2023-04-09T08:43:58.120Z,102031.73
2023-04-09T08:46:29.922Z,102028.86
2023-04-09T08:49:00.393Z,102033.98
2023-04-09T08:51:31.449Z,102033.48
2023-04-09T08:54:05.014Z,102035.14
2023-04-09T08:56:35.816Z,102043.13
2023-04-09T08:59:06.535Z,102039.33
2023-04-09T09:01:37.403Z,102037.24
2023-04-09T09:04:09.508Z,102037.70
2023-04-09T09:06:41.678Z,102037.98
2023-04-09T09:09:14.165Z,102037.30
2023-04-09T09:11:46.861Z,102038.90
2023-04-09T09:14:19.555Z,102033.59
2023-04-09T09:17:08.343Z,102032.96
2023-04-09T09:19:39.233Z,102031.67
2023-04-09T09:22:12.542Z,102028.48
2023-04-09T09:24:51.482Z,102027.02
2023-04-09T09:27:40.546Z,102026.39
2023-04-09T09:30:21.714Z,102028.44
2023-04-09T09:32:55.249Z,102024.38
2023-04-09T09:35:26.095Z,102024.52
2023-04-09T09:38:06.354Z,102024.72
2023-04-09T09:40:36.716Z,102030.11
2023-04-09T09:43:07.081Z,102026.67
2023-04-09T09:45:39.888Z,102025.14
2023-04-09T09:48:11.517Z,102025.92
2023-04-09T09:50:43.723Z,102024.53
2023-04-09T09:53:15.528Z,102021.11
2023-04-09T09:55:50.485Z,102021.61
2023-04-09T09:58:27.908Z,102021.39
2023-04-09T10:00:58.905Z,102022.95
2023-04-09T10:03:32.137Z,102018.89
2023-04-09T10:06:04.378Z,102019.65
2023-04-09T10:08:37.910Z,102020.77
2023-04-09T10:11:08.980Z,102021.54
2023-04-09T10:13:42.706Z,102019.02
2023-04-09T10:16:14.261Z,102018.29
2023-04-09T10:18:45.474Z,102020.08
2023-04-09T10:21:25.378Z,102019.52
2023-04-09T10:23:56.685Z,102016.25
2023-04-09T10:26:30.863Z,102013.80
2023-04-09T10:29:14.433Z,102010.87
2023-04-09T10:32:07.787Z,102006.41
2023-04-09T10:34:41.700Z,102001.97
2023-04-09T10:37:15.501Z,102003.74
2023-04-09T10:39:48.566Z,101996.70
2023-04-09T10:42:24.828Z,101990.26
2023-04-09T10:45:10.173Z,101981.17
2023-04-09T10:47:43.007Z,101978.45
2023-04-09T10:50:26.744Z,101978.59
2023-04-09T10:53:00.261Z,101975.30
2023-04-09T10:55:38.409Z,101977.19
2023-04-09T10:58:12.793Z,101974.39
2023-04-09T11:00:45.466Z,101972.38
2023-04-09T11:03:30.618Z,101973.27
2023-04-09T11:06:05.979Z,101969.76
2023-04-09T11:08:38.016Z,101966.67
2023-04-09T11:11:08.736Z,101968.50
2023-04-09T11:13:39.030Z,101970.21
2023-04-09T11:16:09.662Z,101961.91
2023-04-09T11:18:40.950Z,101960.66
2023-04-09T11:21:13.441Z,101960.27
2023-04-09T11:23:52.347Z,101962.22
2023-04-09T11:26:29.365Z,101957.29
2023-04-09T11:29:05.508Z,101953.86
2023-04-09T11:31:36.498Z,101952.50
2023-04-09T11:34:06.888Z,101953.64
2023-04-09T11:36:38.316Z,101955.63
2023-04-09T11:39:09.019Z,101949.08
2023-04-09T11:41:40.031Z,101950.44
2023-04-09T11:44:11.038Z,101948.23
2023-04-09T11:46:42.021Z,101945.27
2023-04-09T11:49:13.813Z,101944.21
2023-04-09T11:51:44.244Z,101941.67
2023-04-09T11:54:14.881Z,101947.33
2023-04-09T11:56:45.941Z,101944.30
2023-04-09T11:59:18.752Z,101943.93
2023-04-09T12:01:52.663Z,101940.09
2023-04-09T12:04:24.177Z,101937.30
2023-04-09T12:06:59.608Z,101934.60
2023-04-09T12:09:30.564Z,101936.23
2023-04-09T12:12:02.349Z,101932.48
2023-04-09T12:14:32.955Z,101935.23
2023-04-09T12:17:03.478Z,101934.77
2023-04-09T12:19:37.427Z,101929.36
2023-04-09T12:22:07.800Z,101926.95
2023-04-09T12:24:38.096Z,101930.81
2023-04-09T12:27:08.386Z,101929.98
2023-04-09T12:29:38.745Z,101920.59
2023-04-09T12:32:09.234Z,101925.13
2023-04-09T12:34:39.697Z,101918.99
2023-04-09T12:37:10.626Z,101914.52
2023-04-09T12:39:41.722Z,101914.33
2023-04-09T12:42:12.098Z,101914.40
2023-04-09T12:44:42.941Z,101912.00
2023-04-09T12:47:13.445Z,101911.54
2023-04-09T12:49:46.741Z,101909.30
2023-04-09T12:52:18.745Z,101908.96
2023-04-09T12:54:49.576Z,101906.66
2023-04-09T12:57:20.314Z,101901.98
2023-04-09T12:59:51.010Z,101898.92
2023-04-09T13:02:22.567Z,101901.08
2023-04-09T13:04:53.826Z,101900.95
2023-04-09T13:07:25.729Z,101896.98
2023-04-09T13:09:56.583Z,101900.68
2023-04-09T13:12:27.090Z,101901.86
2023-04-09T13:14:59.134Z,101898.66
2023-04-09T13:17:30.012Z,101895.89
2023-04-09T13:20:01.275Z,101891.13
2023-04-09T13:22:31.677Z,101890.09
2023-04-09T13:25:02.325Z,101881.83
2023-04-09T13:27:33.047Z,101887.08
2023-04-09T13:30:03.877Z,101879.92
2023-04-09T13:32:34.349Z,101881.02
2023-04-09T13:35:06.173Z,101883.48
2023-04-09T13:37:36.912Z,101878.14
2023-04-09T13:40:09.933Z,101874.31
2023-04-09T13:42:40.813Z,101871.91
2023-04-09T13:45:12.304Z,101868.27
2023-04-09T13:47:43.053Z,101868.55
2023-04-09T13:50:14.338Z,101861.57
2023-04-09T13:52:44.700Z,101860.15
2023-04-09T13:55:15.477Z,101863.77
2023-04-09T13:57:46.281Z,101860.73
2023-04-09T14:00:17.574Z,101859.98
2023-04-09T14:02:48.875Z,101852.98
2023-04-09T14:05:19.562Z,101853.45
2023-04-09T14:07:49.943Z,101847.23
2023-04-09T14:10:20.578Z,101846.81
2023-04-09T14:12:51.538Z,101847.58
2023-04-09T14:15:22.237Z,101843.73
2023-04-09T14:17:52.984Z,101846.86
2023-04-09T14:20:24.570Z,101848.62
2023-04-09T14:22:55.847Z,101851.15
2023-04-09T14:25:26.232Z,101845.08
2023-04-09T14:27:57.037Z,101841.84
2023-04-09T14:30:27.490Z,101836.90
2023-04-09T14:32:58.241Z,101832.56
2023-04-09T14:35:28.723Z,101830.17
2023-04-09T14:37:59.508Z,101828.92
2023-04-09T14:40:29.948Z,101829.36
2023-04-09T14:43:01.124Z,101828.50
2023-04-09T14:45:31.470Z,101825.42
2023-04-09T14:48:03.070Z,101825.72
2023-04-09T14:50:34.774Z,101827.34
2023-04-09T14:53:05.776Z,101827.59
2023-04-09T14:55:36.210Z,101826.42
2023-04-09T14:58:08.241Z,101820.59
2023-04-09T15:00:39.463Z,101818.49
2023-04-09T15:03:10.140Z,101814.92
2023-04-09T15:05:41.366Z,101813.23
2023-04-09T15:08:12.037Z,101814.34
2023-04-09T15:10:42.389Z,101808.39
2023-04-09T15:13:13.092Z,101807.09
2023-04-09T15:15:45.022Z,101807.46
2023-04-09T15:18:16.012Z,101808.61
2023-04-09T15:20:46.757Z,101808.48
2023-04-09T15:23:17.382Z,101807.19
2023-04-09T15:25:47.978Z,101803.47
2023-04-09T15:28:18.339Z,101804.95
2023-04-09T15:30:48.964Z,101804.07
2023-04-09T15:33:19.977Z,101805.58
2023-04-09T15:35:50.805Z,101806.04
2023-04-09T15:38:25.030Z,101806.08
2023-04-09T15:40:59.134Z,101806.05
2023-04-09T15:43:29.856Z,101801.21
2023-04-09T15:46:00.940Z,101801.81
2023-04-09T15:48:31.471Z,101801.83
2023-04-09T15:51:01.827Z,101798.02
2023-04-09T15:53:32.371Z,101792.48
2023-04-09T15:56:03.196Z,101787.83
2023-04-09T15:58:33.598Z,101788.08
2023-04-09T16:01:09.045Z,101784.36
2023-04-09T16:03:41.347Z,101783.54
2023-04-09T16:06:14.439Z,101779.19
2023-04-09T16:08:44.883Z,101780.35
2023-04-09T16:11:15.957Z,101779.48
2023-04-09T16:13:46.290Z,101779.17
2023-04-09T16:16:16.630Z,101783.05
2023-04-09T16:18:47.659Z,101787.31
2023-04-09T16:21:18.055Z,101788.47
2023-04-09T16:23:48.797Z,101788.80
2023-04-09T16:26:19.436Z,101789.04
2023-04-09T16:28:51.281Z,101788.59
2023-04-09T16:31:22.078Z,101790.48
2023-04-09T16:33:52.757Z,101791.44
2023-04-09T16:36:23.195Z,101787.95
2023-04-09T16:38:54.119Z,101785.05
2023-04-09T16:41:25.343Z,101776.20
2023-04-09T16:43:56.141Z,101775.94
2023-04-09T16:46:26.524Z,101777.56
2023-04-09T16:48:57.015Z,101776.52
2023-04-09T16:51:27.549Z,101773.75
2023-04-09T16:53:58.203Z,101768.57
2023-04-09T16:56:28.632Z,101768.58
2023-04-09T16:58:59.660Z,101766.86
2023-04-09T17:01:30.255Z,101761.38
2023-04-09T17:04:03.113Z,101760.85
2023-04-09T17:06:33.556Z,101759.54
2023-04-09T17:09:05.314Z,101756.20
2023-04-09T17:11:38.033Z,101759.30
2023-04-09T17:14:08.661Z,101756.29
2023-04-09T17:16:39.105Z,101759.94
2023-04-09T17:19:09.940Z,101765.14
2023-04-09T17:21:41.134Z,101763.55
2023-04-09T17:24:11.766Z,101757.52
2023-04-09T17:26:42.721Z,101762.45
2023-04-09T17:29:13.712Z,101765.45
2023-04-09T17:31:44.874Z,101766.78
2023-04-09T17:34:16.326Z,101768.67
2023-04-09T17:36:49.738Z,101766.40
2023-04-09T17:39:20.345Z,101766.78
2023-04-09T17:41:51.475Z,101774.45
2023-04-09T17:44:22.841Z,101775.58
2023-04-09T17:46:53.886Z,101778.71
2023-04-09T17:49:24.720Z,101778.66
2023-04-09T17:51:55.082Z,101775.81
2023-04-09T17:54:25.781Z,101779.19
2023-04-09T17:56:56.940Z,101778.27
2023-04-09T17:59:27.321Z,101781.36
2023-04-09T18:01:57.917Z,101781.33
2023-04-09T18:04:29.306Z,101787.64
2023-04-09T18:06:59.774Z,101788.69
2023-04-09T18:09:30.644Z,101787.88
2023-04-09T18:12:02.772Z,101787.52
2023-04-09T18:14:33.220Z,101779.83
2023-04-09T18:17:03.561Z,101780.98
2023-04-09T18:19:34.471Z,101785.21
2023-04-09T18:22:05.124Z,101789.51
2023-04-09T18:24:35.580Z,101788.14
2023-04-09T18:27:06.104Z,101789.42
2023-04-09T18:29:36.471Z,101790.98
2023-04-09T18:32:07.078Z,101789.86
2023-04-09T18:34:38.217Z,101785.43
2023-04-09T18:37:08.888Z,101785.20
2023-04-09T18:39:39.554Z,101786.64
2023-04-09T18:42:10.470Z,101786.15
2023-04-09T18:44:41.406Z,101788.55
2023-04-09T18:47:14.170Z,101792.99
2023-04-09T18:49:44.884Z,101790.77
2023-04-09T18:52:15.664Z,101795.01
2023-04-09T18:54:48.154Z,101799.14
2023-04-09T18:57:19.287Z,101798.45
2023-04-09T18:59:50.149Z,101796.33
2023-04-09T19:02:20.743Z,101800.98
2023-04-09T19:04:51.350Z,101806.63
2023-04-09T19:07:23.019Z,101803.83
2023-04-09T19:09:53.394Z,101800.04
2023-04-09T19:12:24.989Z,101800.70
2023-04-09T19:14:55.828Z,101799.67
2023-04-09T19:17:27.236Z,101790.57
2023-04-09T19:19:57.758Z,101787.67
2023-04-09T19:22:28.386Z,101789.81
2023-04-09T19:24:59.386Z,101784.09
2023-04-09T19:27:29.774Z,101787.98
2023-04-09T19:30:01.141Z,101787.96
2023-04-09T19:32:31.846Z,101789.23
2023-04-09T19:35:03.045Z,101783.12
2023-04-09T19:37:34.672Z,101783.25
2023-04-09T19:40:05.464Z,101780.41
2023-04-09T19:42:36.131Z,101780.05
2023-04-09T19:45:07.915Z,101783.73
2023-04-09T19:47:38.546Z,101785.80
2023-04-09T19:50:10.222Z,101783.73
2023-04-09T19:52:42.869Z,101778.67
2023-04-09T19:55:13.797Z,101774.54
2023-04-09T19:57:46.104Z,101778.19
2023-04-09T20:00:17.336Z,101775.89
2023-04-09T20:02:47.902Z,101776.67
2023-04-09T20:05:20.924Z,101782.06
2023-04-09T20:07:52.666Z,101780.84
2023-04-09T20:10:23.240Z,101780.24
2023-04-09T20:12:53.873Z,101777.31
2023-04-09T20:15:24.460Z,101776.73
2023-04-09T20:17:55.547Z,101774.45
2023-04-09T20:20:26.156Z,101773.41
2023-04-09T20:22:56.913Z,101784.86
2023-04-09T20:25:33.869Z,101788.10
2023-04-09T20:28:05.083Z,101785.02
2023-04-09T20:30:35.492Z,101785.48
2023-04-09T20:33:05.858Z,101781.38
2023-04-09T20:35:37.818Z,101783.98
2023-04-09T20:38:08.254Z,101787.48
2023-04-09T20:40:39.337Z,101782.77
2023-04-09T20:43:10.384Z,101782.84
2023-04-09T20:45:41.196Z,101783.04
2023-04-09T20:48:11.841Z,101779.73
2023-04-09T20:50:42.838Z,101775.95
2023-04-09T20:53:13.405Z,101780.81
2023-04-09T20:55:43.760Z,101778.58
2023-04-09T20:58:14.632Z,101776.70
2023-04-09T21:00:45.718Z,101780.02
2023-04-09T21:03:17.154Z,101776.73
2023-04-09T21:05:47.774Z,101779.86
2023-04-09T21:08:18.149Z,101780.83
2023-04-09T21:10:48.967Z,101785.69
2023-04-09T21:13:19.500Z,101784.52
2023-04-09T21:15:51.249Z,101782.99
2023-04-09T21:18:21.761Z,101781.56
2023-04-09T21:20:52.473Z,101782.65
2023-04-09T21:23:22.858Z,101782.96
2023-04-09T21:25:53.166Z,101780.23
2023-04-09T21:28:23.525Z,101773.64
2023-04-09T21:30:54.837Z,101769.63
2023-04-09T21:33:27.507Z,101771.51
2023-04-09T21:35:58.922Z,101770.92
2023-04-09T21:38:29.351Z,101771.21
2023-04-09T21:41:00.393Z,101769.63
2023-04-09T21:43:30.956Z,101768.72
2023-04-09T21:46:01.596Z,101767.02
2023-04-09T21:48:32.620Z,101765.82
2023-04-09T21:51:03.677Z,101766.62
2023-04-09T21:53:34.482Z,101766.41
2023-04-09T21:56:05.487Z,101767.88
2023-04-09T21:58:36.334Z,101773.48
2023-04-09T22:01:15.854Z,101779.66
2023-04-09T22:03:53.642Z,101779.30
2023-04-09T22:06:24.396Z,101778.23
2023-04-09T22:08:56.650Z,101774.47
2023-04-09T22:11:28.948Z,101773.43
2023-04-09T22:13:59.739Z,101775.90
2023-04-09T22:16:30.218Z,101771.83
2023-04-09T22:19:02.221Z,101774.58
2023-04-09T22:21:32.875Z,101778.44
2023-04-09T22:24:03.591Z,101773.77
2023-04-09T22:26:34.417Z,101770.98
2023-04-09T22:29:06.824Z,101766.64
2023-04-09T22:31:38.449Z,101770.42
2023-04-09T22:34:20.184Z,101774.29
2023-04-09T22:36:52.087Z,101777.50
2023-04-09T22:39:22.912Z,101780.97
2023-04-09T22:41:53.935Z,101780.05
2023-04-09T22:44:24.784Z,101777.01
2023-04-09T22:46:55.364Z,101780.27
2023-04-09T22:49:26.562Z,101780.48
2023-04-09T22:51:57.434Z,101776.17
2023-04-09T22:54:29.989Z,101777.76
2023-04-09T22:57:01.251Z,101780.98
2023-04-09T22:59:40.401Z,101777.32
2023-04-09T23:02:11.779Z,101776.96
2023-04-09T23:04:42.688Z,101774.90
2023-04-09T23:07:13.145Z,101780.60
2023-04-09T23:09:43.842Z,101776.80
2023-04-09T23:12:14.213Z,101771.72
2023-04-09T23:14:45.298Z,101769.74
2023-04-09T23:17:17.148Z,101770.17
2023-04-09T23:19:47.568Z,101771.96
2023-04-09T23:22:17.911Z,101768.85
2023-04-09T23:24:48.660Z,101768.84
2023-04-09T23:27:19.077Z,101765.85
2023-04-09T23:29:49.420Z,101764.48
2023-04-09T23:32:19.792Z,101762.33
2023-04-09T23:34:50.328Z,101764.23
2023-04-09T23:37:21.403Z,101766.91
2023-04-09T23:39:51.833Z,101763.10
2023-04-09T23:42:22.216Z,101762.10
2023-04-09T23:44:53.269Z,101757.67
2023-04-09T23:47:23.663Z,101754.25
2023-04-09T23:49:54.065Z,101750.53
2023-04-09T23:52:24.648Z,101756.29
2023-04-09T23:54:55.812Z,101755.90
2023-04-09T23:57:26.265Z,101754.45
2023-04-09T23:59:57.084Z,101754.02
